Time;durP1;ratioP1;P1;durP2;ratioP2;P2;SDS_P1;SDS_P2;PMS_P1;PMS_P2;Temp;Humidity;BMP_temperature;BMP_pressure;BME280_temperature;BME280_humidity;BME280_pressure;Samples;Min_cycle;Max_cycle;Signal;HPM_P1;HPM_P2
2021/12/25 00:02:23;;;;;;;0.95;0.80;;;;;;;;;;5010187;28;20033;-75
2021/12/25 00:04:48;;;;;;;1.10;0.70;;;;;;;;;;5010344;28;20048;-75
2021/12/25 00:07:14;;;;;;;0.75;0.75;;;;;;;;;;4992391;28;20045;-75
2021/12/25 00:09:39;;;;;;;3.17;1.33;;;;;;;;;;4991488;28;20478;-75
2021/12/25 00:12:05;;;;;;;1.85;1.10;;;;;;;;;;4976185;28;20045;-75
2021/12/25 00:14:31;;;;;;;0.80;0.73;;;;;;;;;;5010093;28;20562;-75
2021/12/25 00:16:58;;;;;;;1.13;0.80;;;;;;;;;;4992335;28;20084;-75
2021/12/25 00:19:24;;;;;;;1.45;0.95;;;;;;;;;;4991611;28;20048;-74
2021/12/25 00:21:50;;;;;;;1.48;1.35;;;;;;;;;;4992259;28;20038;-74
2021/12/25 00:24:16;;;;;;;1.27;0.73;;;;;;;;;;4992637;28;20120;-75
2021/12/25 00:27:07;;;;;;;3.70;0.98;;;;;;;;;;5009532;28;20109;-75
2021/12/25 00:29:52;;;;;;;2.75;1.20;;;;;;;;;;4992198;28;20124;-74
2021/12/25 00:34:46;;;;;;;0.90;0.80;;;;;;;;;;4994333;28;20136;-75
2021/12/25 00:37:12;;;;;;;2.40;0.95;;;;;;;;;;5013772;28;20498;-75
2021/12/25 00:39:37;;;;;;;2.08;1.23;;;;;;;;;;4995938;28;20542;-74
2021/12/25 00:42:05;;;;;;;0.80;0.80;;;;;;;;;;4978910;28;20038;-74
2021/12/25 00:44:33;;;;;;;0.93;0.75;;;;;;;;;;4995981;28;20026;-74
2021/12/25 00:46:59;;;;;;;0.93;0.60;;;;;;;;;;4988519;28;20030;-74
2021/12/25 00:49:26;;;;;;;1.50;0.85;;;;;;;;;;4976165;28;20119;-74
2021/12/25 00:51:52;;;;;;;1.08;0.90;;;;;;;;;;5012996;28;20402;-74
2021/12/25 00:54:18;;;;;;;2.63;0.90;;;;;;;;;;4993572;28;20048;-74
2021/12/25 00:56:43;;;;;;;0.52;0.52;;;;;;;;;;4993888;28;20037;-74
2021/12/25 00:59:09;;;;;;;3.13;1.00;;;;;;;;;;4985928;28;20655;-74
2021/12/25 01:01:35;;;;;;;0.77;0.77;;;;;;;;;;4990095;28;20471;-74
2021/12/25 01:04:01;;;;;;;0.85;0.82;;;;;;;;;;4979318;28;20032;-74
2021/12/25 01:06:27;;;;;;;2.10;1.30;;;;;;;;;;4995399;28;20398;-74
2021/12/25 01:08:53;;;;;;;1.25;0.90;;;;;;;;;;4979208;28;20034;-74
2021/12/25 01:11:23;;;;;;;1.00;0.80;;;;;;;;;;4995405;28;20088;-74
2021/12/25 01:13:56;;;;;;;0.73;0.45;;;;;;;;;;4994615;28;20041;-74
2021/12/25 01:25:05;;;;;;;1.13;1.00;;;;;;;;;;4990881;28;20390;-74
2021/12/25 01:30:22;;;;;;;2.38;1.08;;;;;;;;;;4993401;28;20092;-74
2021/12/25 01:49:54;;;;;;;1.52;0.98;;;;;;;;;;4994718;28;20034;-74
2021/12/25 01:52:26;;;;;;;1.38;1.10;;;;;;;;;;4994802;28;20034;-74
2021/12/25 01:54:53;;;;;;;2.78;1.25;;;;;;;;;;4994737;28;20081;-74
2021/12/25 01:57:19;;;;;;;2.17;1.33;;;;;;;;;;4993654;28;20041;-74
2021/12/25 01:59:45;;;;;;;1.60;1.20;;;;;;;;;;4978125;28;20522;-74
2021/12/25 02:02:10;;;;;;;1.88;1.30;;;;;;;;;;4994353;28;20569;-75
2021/12/25 02:04:36;;;;;;;2.20;1.42;;;;;;;;;;4994780;28;20049;-75
2021/12/25 02:07:02;;;;;;;1.25;1.00;;;;;;;;;;5012035;28;20112;-74
2021/12/25 02:09:27;;;;;;;1.17;1.08;;;;;;;;;;4993426;28;20148;-74
2021/12/25 02:11:53;;;;;;;1.83;1.13;;;;;;;;;;4978231;28;20112;-74
2021/12/25 02:14:19;;;;;;;1.27;1.17;;;;;;;;;;4994653;28;20494;-75
2021/12/25 02:16:56;;;;;;;1.00;1.00;;;;;;;;;;4994082;28;20029;-75
2021/12/25 02:19:44;;;;;;;1.23;1.10;;;;;;;;;;4989602;28;20054;-74
2021/12/25 02:22:11;;;;;;;1.55;1.33;;;;;;;;;;4994150;28;20136;-75
2021/12/25 02:24:38;;;;;;;1.20;1.10;;;;;;;;;;4994406;28;20108;-75
2021/12/25 02:27:05;;;;;;;1.30;1.20;;;;;;;;;;4993832;28;20029;-75
2021/12/25 02:29:32;;;;;;;1.30;1.20;;;;;;;;;;4990153;28;20030;-75
2021/12/25 02:31:59;;;;;;;2.03;1.20;;;;;;;;;;4993767;28;20040;-74
2021/12/25 02:34:24;;;;;;;1.30;1.15;;;;;;;;;;4990702;28;20115;-74
2021/12/25 02:36:51;;;;;;;2.65;1.40;;;;;;;;;;5003803;28;20619;-74
2021/12/25 02:39:17;;;;;;;1.40;1.30;;;;;;;;;;4977485;28;20117;-74
2021/12/25 02:41:43;;;;;;;1.75;1.50;;;;;;;;;;5009850;28;20030;-74
2021/12/25 02:44:09;;;;;;;3.10;1.50;;;;;;;;;;4977518;28;20088;-74
2021/12/25 02:46:40;;;;;;;1.63;1.52;;;;;;;;;;4993584;28;20508;-74
2021/12/25 02:49:14;;;;;;;1.73;1.50;;;;;;;;;;4977482;28;20529;-74
2021/12/25 02:51:45;;;;;;;2.88;1.63;;;;;;;;;;4992930;28;20578;-74
2021/12/25 02:54:12;;;;;;;1.98;1.63;;;;;;;;;;4977435;28;20025;-75
2021/12/25 02:56:38;;;;;;;2.70;1.60;;;;;;;;;;4993276;28;20042;-75
2021/12/25 02:59:04;;;;;;;2.50;1.48;;;;;;;;;;4993513;28;20025;-75
2021/12/25 03:01:30;;;;;;;2.28;1.88;;;;;;;;;;5010900;28;20041;-74
2021/12/25 03:03:55;;;;;;;2.25;1.90;;;;;;;;;;4976816;28;20048;-74
2021/12/25 03:06:23;;;;;;;1.80;1.70;;;;;;;;;;4993178;28;20050;-75
2021/12/25 03:08:49;;;;;;;2.13;1.80;;;;;;;;;;4993122;28;20510;-74
2021/12/25 03:11:16;;;;;;;2.05;1.85;;;;;;;;;;4993411;28;20077;-75
2021/12/25 03:13:55;;;;;;;2.03;1.83;;;;;;;;;;4976387;28;20061;-75
2021/12/25 03:16:22;;;;;;;3.30;2.00;;;;;;;;;;4992891;28;20116;-75
2021/12/25 03:18:52;;;;;;;2.20;2.00;;;;;;;;;;4993034;28;20068;-74
2021/12/25 03:21:18;;;;;;;1.98;1.77;;;;;;;;;;4993151;28;20514;-74
2021/12/25 03:23:46;;;;;;;2.47;2.15;;;;;;;;;;4993486;28;20036;-75
2021/12/25 03:26:11;;;;;;;3.22;2.42;;;;;;;;;;5009653;28;20597;-75
2021/12/25 03:28:41;;;;;;;2.70;1.92;;;;;;;;;;4992680;28;20050;-74
2021/12/25 03:31:15;;;;;;;2.00;1.80;;;;;;;;;;4973478;28;20442;-75
2021/12/25 03:33:43;;;;;;;3.45;2.10;;;;;;;;;;4973771;28;20092;-75
2021/12/25 03:36:08;;;;;;;2.03;1.85;;;;;;;;;;4998582;28;20753;-75
2021/12/25 03:38:35;;;;;;;1.63;1.52;;;;;;;;;;4992613;28;20509;-75
2021/12/25 03:41:00;;;;;;;1.98;1.67;;;;;;;;;;4992919;28;20025;-75
2021/12/25 03:43:28;;;;;;;1.90;1.70;;;;;;;;;;4991805;28;20040;-75
2021/12/25 03:45:54;;;;;;;1.83;1.65;;;;;;;;;;4992485;28;20542;-75
2021/12/25 03:57:38;;;;;;;5.00;2.10;;;;;;;;;;4992750;28;20034;-75
2021/12/25 03:59:12;;;;;;;2.45;1.70;;;;;;;;;;4991458;28;20044;-75
2021/12/25 04:09:34;;;;;;;2.10;1.90;;;;;;;;;;4993473;28;20398;-74
2021/12/25 04:12:06;;;;;;;2.28;1.88;;;;;;;;;;4996836;28;20034;-74
2021/12/25 04:14:33;;;;;;;2.92;1.90;;;;;;;;;;4996878;28;20029;-75
2021/12/25 04:16:59;;;;;;;2.90;2.38;;;;;;;;;;4996618;28;20034;-75
2021/12/25 04:19:25;;;;;;;4.18;2.35;;;;;;;;;;4995840;28;20125;-75
2021/12/25 04:22:05;;;;;;;2.88;2.55;;;;;;;;;;4980211;28;20432;-75
2021/12/25 04:24:35;;;;;;;3.58;3.00;;;;;;;;;;4980447;28;20513;-75
2021/12/25 04:27:01;;;;;;;3.20;2.35;;;;;;;;;;4996243;28;20107;-75
2021/12/25 04:42:58;;;;;;;2.17;1.98;;;;;;;;;;4994357;28;20170;-75
2021/12/25 05:01:51;;;;;;;3.20;2.70;;;;;;;;;;4993620;28;20029;-75
2021/12/25 05:04:42;;;;;;;3.42;2.97;;;;;;;;;;5012937;28;20585;-75
2021/12/25 05:07:15;;;;;;;5.35;2.95;;;;;;;;;;4985831;28;20121;-75
2021/12/25 05:09:40;;;;;;;3.00;2.70;;;;;;;;;;4960171;28;20198;-75
2021/12/25 05:12:07;;;;;;;2.78;2.58;;;;;;;;;;4976224;28;20475;-75
2021/12/25 05:14:33;;;;;;;2.83;2.63;;;;;;;;;;4979026;28;20034;-75
2021/12/25 05:16:59;;;;;;;2.60;2.40;;;;;;;;;;4983771;28;20056;-75
2021/12/25 05:19:25;;;;;;;3.00;2.72;;;;;;;;;;4995280;28;20418;-74
2021/12/25 05:21:52;;;;;;;3.72;2.53;;;;;;;;;;4995566;28;20049;-75
2021/12/25 05:24:18;;;;;;;13.13;2.38;;;;;;;;;;4995651;28;20037;-75
2021/12/25 05:26:49;;;;;;;3.00;2.67;;;;;;;;;;4994299;28;20449;-75
2021/12/25 05:29:22;;;;;;;2.90;2.70;;;;;;;;;;4995376;28;20057;-75
2021/12/25 05:31:48;;;;;;;3.28;2.97;;;;;;;;;;4995245;28;20606;-75
2021/12/25 05:34:17;;;;;;;12.23;3.10;;;;;;;;;;4995268;28;20033;-75
2021/12/25 05:36:46;;;;;;;5.72;3.42;;;;;;;;;;4994330;28;20029;-75
2021/12/25 05:39:39;;;;;;;4.27;3.30;;;;;;;;;;4992477;28;20041;-75
2021/12/25 05:42:06;;;;;;;3.97;3.17;;;;;;;;;;4993983;28;20280;-75
2021/12/25 05:44:31;;;;;;;3.78;3.13;;;;;;;;;;4978907;28;20033;-74
2021/12/25 05:47:08;;;;;;;3.22;2.92;;;;;;;;;;4975262;28;20034;-74
2021/12/25 05:49:38;;;;;;;3.42;3.13;;;;;;;;;;4991174;28;20033;-74
2021/12/25 05:52:09;;;;;;;3.90;3.47;;;;;;;;;;4975548;28;20072;-74
2021/12/25 05:54:58;;;;;;;5.15;3.33;;;;;;;;;;4982781;28;20050;-75
2021/12/25 05:57:43;;;;;;;7.60;4.00;;;;;;;;;;4992990;28;20116;-74
2021/12/25 06:00:11;;;;;;;4.90;3.53;;;;;;;;;;5008716;28;20442;-75
2021/12/25 06:02:48;;;;;;;3.60;3.30;;;;;;;;;;4994595;28;20041;-75
2021/12/25 06:05:19;;;;;;;;;;;;;;;;;;4995195;28;20041;-75
2021/12/25 06:07:45;;;;;;;4.57;3.55;;;;;;;;;;4994461;28;19913;-75
2021/12/25 06:10:11;;;;;;;5.22;4.38;;;;;;;;;;4993869;28;20084;-74
2021/12/25 06:12:39;;;;;;;6.03;4.80;;;;;;;;;;4994370;28;20033;-74
2021/12/25 06:15:06;;;;;;;5.57;3.97;;;;;;;;;;4994351;28;20060;-75
2021/12/25 06:17:47;;;;;;;4.22;3.83;;;;;;;;;;4994366;28;20048;-74
2021/12/25 06:20:21;;;;;;;4.22;3.83;;;;;;;;;;4993304;28;20041;-75
2021/12/25 06:23:09;;;;;;;5.38;4.10;;;;;;;;;;4979867;28;20042;-74
2021/12/25 06:26:02;;;;;;;6.03;4.45;;;;;;;;;;4994216;28;20034;-75
2021/12/25 06:28:36;;;;;;;6.63;4.13;;;;;;;;;;5011850;28;20573;-74
2021/12/25 06:31:24;;;;;;;9.88;3.95;;;;;;;;;;4992954;28;20038;-74
2021/12/25 06:34:05;;;;;;;4.20;3.80;;;;;;;;;;4985985;28;20036;-74
2021/12/25 06:36:38;;;;;;;4.40;3.95;;;;;;;;;;4994115;28;20045;-74
2021/12/25 06:39:23;;;;;;;5.07;4.35;;;;;;;;;;5011382;28;20164;-74
2021/12/25 06:41:59;;;;;;;5.47;4.55;;;;;;;;;;4993035;28;20030;-74
2021/12/25 06:44:27;;;;;;;6.03;4.78;;;;;;;;;;4989221;28;20033;-74
2021/12/25 06:46:54;;;;;;;5.80;5.00;;;;;;;;;;4985819;28;20125;-75
2021/12/25 06:49:22;;;;;;;10.20;4.88;;;;;;;;;;4974138;28;20407;-75
2021/12/25 06:52:10;;;;;;;7.68;4.80;;;;;;;;;;4932964;28;20546;-75
2021/12/25 06:55:09;;;;;;;7.30;5.03;;;;;;;;;;4994361;28;20041;-75
2021/12/25 06:57:47;;;;;;;6.95;5.05;;;;;;;;;;4993464;28;20069;-74
2021/12/25 07:00:15;;;;;;;7.50;5.28;;;;;;;;;;4993477;28;20084;-75
2021/12/25 07:02:40;;;;;;;7.28;5.13;;;;;;;;;;4977432;28;20030;-75
2021/12/25 07:05:24;;;;;;;6.72;5.00;;;;;;;;;;5010574;28;20753;-74
2021/12/25 07:08:05;;;;;;;7.10;4.85;;;;;;;;;;5003373;28;20048;-74
2021/12/25 07:10:43;;;;;;;6.65;4.22;;;;;;;;;;4993340;28;20482;-74
2021/12/25 07:13:34;;;;;;;6.03;4.60;;;;;;;;;;5008931;28;20046;-74
2021/12/25 07:16:19;;;;;;;7.45;4.60;;;;;;;;;;5010139;28;20049;-74
2021/12/25 07:19:10;;;;;;;4.97;4.45;;;;;;;;;;4945857;28;20077;-75
2021/12/25 07:21:58;;;;;;;5.95;4.68;;;;;;;;;;4991580;28;20042;-75
2021/12/25 07:24:35;;;;;;;6.25;4.88;;;;;;;;;;4991567;28;20104;-75
2021/12/25 07:27:37;;;;;;;6.55;5.18;;;;;;;;;;4989164;28;20391;-74
2021/12/25 07:30:05;;;;;;;6.68;5.10;;;;;;;;;;4993041;28;20069;-75
2021/12/25 07:32:31;;;;;;;6.72;4.88;;;;;;;;;;4991532;28;20046;-75
2021/12/25 07:34:57;;;;;;;7.07;4.80;;;;;;;;;;4990193;28;20042;-75
2021/12/25 07:37:23;;;;;;;4.72;4.30;;;;;;;;;;4975625;28;20450;-75
2021/12/25 07:39:49;;;;;;;4.90;4.28;;;;;;;;;;4992921;28;20038;-75
2021/12/25 07:42:14;;;;;;;5.75;4.45;;;;;;;;;;4992097;28;20038;-75
2021/12/25 07:45:06;;;;;;;5.13;4.63;;;;;;;;;;4992949;28;20033;-74
2021/12/25 07:47:34;;;;;;;5.68;4.75;;;;;;;;;;4973599;28;20129;-75
2021/12/25 07:49:59;;;;;;;4.95;4.07;;;;;;;;;;4987607;28;20076;-75
2021/12/25 07:52:29;;;;;;;9.02;4.47;;;;;;;;;;5010560;28;20069;-75
2021/12/25 07:54:54;;;;;;;5.30;4.55;;;;;;;;;;5010622;28;20026;-75
2021/12/25 07:57:20;;;;;;;5.80;4.22;;;;;;;;;;5010309;28;20572;-75
2021/12/25 07:59:45;;;;;;;6.18;4.38;;;;;;;;;;5009562;28;20026;-75
2021/12/25 08:02:11;;;;;;;4.85;4.35;;;;;;;;;;4992572;28;20022;-75
2021/12/25 08:04:36;;;;;;;6.72;4.30;;;;;;;;;;4992973;28;20030;-75
2021/12/25 08:07:02;;;;;;;4.35;3.75;;;;;;;;;;4992831;28;20092;-75
2021/12/25 08:09:29;;;;;;;5.68;4.18;;;;;;;;;;5010337;28;20124;-75
2021/12/25 08:11:56;;;;;;;4.57;3.80;;;;;;;;;;5009511;28;20044;-75
2021/12/25 08:14:25;;;;;;;4.55;3.75;;;;;;;;;;4976431;28;20044;-75
2021/12/25 08:16:52;;;;;;;5.47;3.67;;;;;;;;;;5010153;28;20034;-75
2021/12/25 08:19:20;;;;;;;6.40;3.67;;;;;;;;;;4992673;28;20061;-75
2021/12/25 08:22:04;;;;;;;4.40;3.70;;;;;;;;;;5009706;28;20407;-75
2021/12/25 08:24:51;;;;;;;6.40;3.78;;;;;;;;;;5010294;28;20473;-75
2021/12/25 08:27:36;;;;;;;4.68;3.83;;;;;;;;;;5010104;28;20132;-75
2021/12/25 08:30:34;;;;;;;4.22;3.58;;;;;;;;;;4996674;28;20026;-74
2021/12/25 08:33:17;;;;;;;5.32;3.67;;;;;;;;;;5009562;28;20049;-74
2021/12/25 08:36:09;;;;;;;3.70;3.23;;;;;;;;;;4961773;28;20042;-75
2021/12/25 08:38:34;;;;;;;5.10;3.60;;;;;;;;;;4990527;28;20335;-75
2021/12/25 08:41:00;;;;;;;4.20;3.15;;;;;;;;;;4990383;28;20030;-75
2021/12/25 08:43:25;;;;;;;4.57;2.88;;;;;;;;;;4992657;28;20053;-75
2021/12/25 08:46:02;;;;;;;4.75;2.70;;;;;;;;;;5009533;28;20505;-75
2021/12/25 08:48:29;;;;;;;2.55;2.35;;;;;;;;;;5010685;28;20053;-75
2021/12/25 08:50:58;;;;;;;2.83;2.50;;;;;;;;;;5009959;28;20048;-75
2021/12/25 08:53:26;;;;;;;3.70;2.50;;;;;;;;;;4992598;28;20116;-75
2021/12/25 08:55:54;;;;;;;3.00;2.75;;;;;;;;;;4993402;28;20037;-75
2021/12/25 08:58:21;;;;;;;3.92;2.70;;;;;;;;;;4996095;28;20049;-75
2021/12/25 09:00:50;;;;;;;4.80;2.85;;;;;;;;;;5013299;28;20030;-76
2021/12/25 09:03:15;;;;;;;3.00;2.63;;;;;;;;;;5013794;28;20516;-75
2021/12/25 09:05:41;;;;;;;2.90;2.50;;;;;;;;;;4990756;28;20038;-75
2021/12/25 09:08:06;;;;;;;2.90;2.60;;;;;;;;;;5013234;28;20033;-75
2021/12/25 09:10:34;;;;;;;2.90;2.13;;;;;;;;;;4995685;28;20030;-75
2021/12/25 09:13:00;;;;;;;2.58;1.98;;;;;;;;;;5013389;28;20053;-75
2021/12/25 09:15:25;;;;;;;3.90;2.10;;;;;;;;;;4995697;28;20034;-75
2021/12/25 09:17:51;;;;;;;2.42;2.22;;;;;;;;;;4994810;28;20034;-75
2021/12/25 09:20:19;;;;;;;3.10;2.70;;;;;;;;;;5013022;28;20100;-75
2021/12/25 09:22:46;;;;;;;11.82;2.70;;;;;;;;;;5013229;28;20474;-75
2021/12/25 09:25:11;;;;;;;2.30;2.10;;;;;;;;;;5013356;28;20149;-75
2021/12/25 09:27:37;;;;;;;3.10;2.20;;;;;;;;;;4994403;28;20141;-75
2021/12/25 09:30:04;;;;;;;3.38;2.70;;;;;;;;;;4995185;28;20438;-75
2021/12/25 09:32:30;;;;;;;2.65;2.20;;;;;;;;;;4993509;28;20081;-75
2021/12/25 09:34:55;;;;;;;3.92;2.20;;;;;;;;;;4975845;28;20038;-75
2021/12/25 09:37:21;;;;;;;1.95;1.70;;;;;;;;;;4975794;28;20458;-76
2021/12/25 09:39:48;;;;;;;2.42;1.55;;;;;;;;;;5002084;28;20036;-76
2021/12/25 09:42:13;;;;;;;1.27;1.17;;;;;;;;;;4994343;28;20033;-76
2021/12/25 09:44:39;;;;;;;3.05;0.93;;;;;;;;;;4995434;28;20418;-75
2021/12/25 09:47:04;;;;;;;1.70;0.90;;;;;;;;;;5012522;28;20037;-76
2021/12/25 09:49:30;;;;;;;0.88;0.88;;;;;;;;;;4977857;28;20038;-76
2021/12/25 09:51:56;;;;;;;1.00;0.90;;;;;;;;;;5012488;28;20088;-76
2021/12/25 09:54:22;;;;;;;1.17;0.93;;;;;;;;;;5012743;28;20049;-76
2021/12/25 09:56:49;;;;;;;0.70;0.70;;;;;;;;;;4995143;28;20037;-75
2021/12/25 09:59:15;;;;;;;1.10;1.00;;;;;;;;;;4994855;28;20041;-76
2021/12/25 10:01:45;;;;;;;3.10;0.95;;;;;;;;;;4993953;28;20574;-76
2021/12/25 10:04:33;;;;;;;0.85;0.80;;;;;;;;;;4994761;28;20045;-76
2021/12/25 10:07:12;;;;;;;2.78;1.10;;;;;;;;;;4970674;28;20111;-73
2021/12/25 10:09:38;;;;;;;1.45;0.95;;;;;;;;;;5012146;28;20033;-73
2021/12/25 10:12:10;;;;;;;0.93;0.90;;;;;;;;;;5011433;28;20033;-73
2021/12/25 10:14:37;;;;;;;2.38;1.83;;;;;;;;;;5012117;28;20038;-73
2021/12/25 10:17:23;;;;;;;2.13;1.10;;;;;;;;;;5011953;28;20068;-73
2021/12/25 10:20:07;;;;;;;3.25;1.17;;;;;;;;;;4994517;28;20038;-73
2021/12/25 10:22:35;;;;;;;2.17;1.30;;;;;;;;;;5011422;28;20037;-73
2021/12/25 10:25:11;;;;;;;1.10;1.02;;;;;;;;;;5011765;28;20037;-73
2021/12/25 10:27:47;;;;;;;1.23;1.13;;;;;;;;;;4994091;28;20049;-74
2021/12/25 10:30:13;;;;;;;2.63;1.00;;;;;;;;;;4977848;28;20136;-74
2021/12/25 10:32:39;;;;;;;1.65;1.33;;;;;;;;;;4994468;28;20116;-74
2021/12/25 10:35:36;;;;;;;3.03;1.02;;;;;;;;;;5010964;28;20074;-74
2021/12/25 10:38:10;;;;;;;1.45;1.00;;;;;;;;;;5010945;28;20038;-74
2021/12/25 10:40:36;;;;;;;0.80;0.80;;;;;;;;;;4993988;28;20041;-74
2021/12/25 10:43:03;;;;;;;4.15;0.80;;;;;;;;;;5010883;28;20041;-73
2021/12/25 10:45:31;;;;;;;4.30;1.20;;;;;;;;;;4993166;28;20029;-73
2021/12/25 10:48:08;;;;;;;1.17;1.00;;;;;;;;;;4974231;28;20034;-73
2021/12/25 10:50:40;;;;;;;1.20;0.90;;;;;;;;;;4991721;28;20085;-74
2021/12/25 10:53:29;;;;;;;1.40;0.90;;;;;;;;;;4974430;28;20510;-74
2021/12/25 10:56:15;;;;;;;0.90;0.90;;;;;;;;;;4976175;28;20479;-74
2021/12/25 10:58:43;;;;;;;0.70;0.70;;;;;;;;;;4993352;28;20037;-74
2021/12/25 11:01:12;;;;;;;1.30;0.85;;;;;;;;;;4993548;28;20038;-74
2021/12/25 11:03:41;;;;;;;1.38;0.73;;;;;;;;;;5011463;28;20143;-74
2021/12/25 11:06:10;;;;;;;1.58;1.02;;;;;;;;;;5010930;28;20034;-74
2021/12/25 11:08:37;;;;;;;1.92;0.77;;;;;;;;;;5010937;28;20038;-74
2021/12/25 11:11:05;;;;;;;1.35;1.08;;;;;;;;;;5010860;28;20394;-74
2021/12/25 11:13:32;;;;;;;1.35;1.00;;;;;;;;;;5011289;28;20025;-73
2021/12/25 11:16:30;;;;;;;0.70;0.70;;;;;;;;;;4993460;28;20056;-74
2021/12/25 11:19:12;;;;;;;0.88;0.80;;;;;;;;;;4992053;28;20036;-74
2021/12/25 11:21:44;;;;;;;1.33;0.90;;;;;;;;;;5011077;28;20491;-74
2021/12/25 11:24:17;;;;;;;1.83;0.80;;;;;;;;;;5011120;28;20045;-73
2021/12/25 11:26:46;;;;;;;0.65;0.60;;;;;;;;;;5010687;28;20470;-74
2021/12/25 11:29:15;;;;;;;2.53;0.80;;;;;;;;;;4992541;28;20034;-74
2021/12/25 11:31:42;;;;;;;0.88;0.88;;;;;;;;;;5010629;28;20049;-73
2021/12/25 11:34:07;;;;;;;0.68;0.68;;;;;;;;;;4993208;28;20132;-74
2021/12/25 11:36:38;;;;;;;0.98;0.65;;;;;;;;;;4993136;28;20149;-74
2021/12/25 11:39:05;;;;;;;0.57;0.57;;;;;;;;;;5010624;28;20581;-74
2021/12/25 11:41:32;;;;;;;0.65;0.60;;;;;;;;;;4992529;28;20143;-74
2021/12/25 11:43:58;;;;;;;0.88;0.77;;;;;;;;;;4992981;28;20033;-73
2021/12/25 11:46:40;;;;;;;3.33;0.70;;;;;;;;;;4993046;28;20042;-74
2021/12/25 11:49:05;;;;;;;;;;;;;;;;;;4977002;28;20038;-74
2021/12/25 11:51:31;;;;;;;0.60;0.60;;;;;;;;;;4991977;28;19920;-74
2021/12/25 11:59:22;;;;;;;0.85;0.85;;;;;;;;;;5010468;28;20371;-74
2021/12/25 12:01:51;;;;;;;0.68;0.68;;;;;;;;;;5006676;28;20046;-73
2021/12/25 12:04:25;;;;;;;0.90;0.73;;;;;;;;;;4992717;28;20505;-74
2021/12/25 12:06:53;;;;;;;0.60;0.60;;;;;;;;;;4992873;28;20052;-73
2021/12/25 12:09:44;;;;;;;1.00;0.80;;;;;;;;;;5009930;28;20487;-75
2021/12/25 12:12:38;;;;;;;0.90;0.68;;;;;;;;;;4992081;28;20041;-74
2021/12/25 12:15:26;;;;;;;2.30;0.70;;;;;;;;;;4980543;28;20542;-74
2021/12/25 12:18:26;;;;;;;0.77;0.65;;;;;;;;;;5010567;28;20057;-73
2021/12/25 12:20:57;;;;;;;1.13;0.93;;;;;;;;;;5010180;28;20042;-73
2021/12/25 12:26:13;;;;;;;0.90;0.85;;;;;;;;;;5002484;28;20049;-73
2021/12/25 12:28:52;;;;;;;2.13;1.10;;;;;;;;;;4976440;28;20133;-74
2021/12/25 12:31:47;;;;;;;1.90;1.23;;;;;;;;;;4995253;28;20040;-74
2021/12/25 12:34:39;;;;;;;1.23;1.10;;;;;;;;;;4995708;28;20042;-74
2021/12/25 12:37:26;;;;;;;2.75;1.85;;;;;;;;;;4988288;28;20034;-73
2021/12/25 12:39:55;;;;;;;1.30;1.20;;;;;;;;;;4980058;28;20030;-74
2021/12/25 12:42:49;;;;;;;1.60;1.25;;;;;;;;;;5014024;28;20088;-74
2021/12/25 12:45:19;;;;;;;1.63;1.50;;;;;;;;;;5013078;28;20052;-74
2021/12/25 12:48:09;;;;;;;1.33;1.10;;;;;;;;;;4995906;28;20026;-74
2021/12/25 12:50:37;;;;;;;2.30;1.33;;;;;;;;;;5013570;28;20049;-74
2021/12/25 12:53:06;;;;;;;1.00;0.90;;;;;;;;;;5013775;28;20047;-74
2021/12/25 12:55:34;;;;;;;1.20;1.10;;;;;;;;;;5013743;28;20169;-74
2021/12/25 12:58:15;;;;;;;1.40;1.30;;;;;;;;;;4995022;28;20124;-74
2021/12/25 13:00:45;;;;;;;1.25;1.15;;;;;;;;;;5013213;28;20056;-73
2021/12/25 13:03:10;;;;;;;1.65;1.30;;;;;;;;;;4995814;28;20038;-74
2021/12/25 13:05:43;;;;;;;1.10;1.00;;;;;;;;;;5013445;28;20022;-74
2021/12/25 13:08:30;;;;;;;1.52;1.30;;;;;;;;;;4994823;28;20042;-73
2021/12/25 13:11:07;;;;;;;2.33;1.27;;;;;;;;;;5013247;28;20042;-73
2021/12/25 13:13:37;;;;;;;3.17;1.83;;;;;;;;;;4979623;28;20042;-74
2021/12/25 13:16:09;;;;;;;1.70;1.60;;;;;;;;;;5013058;28;20049;-74
2021/12/25 13:18:37;;;;;;;3.35;2.00;;;;;;;;;;5012805;28;20030;-74
2021/12/25 13:21:08;;;;;;;1.80;1.65;;;;;;;;;;5012787;28;20120;-74
2021/12/25 13:23:46;;;;;;;2.00;1.70;;;;;;;;;;4995797;28;20046;-74
2021/12/25 13:26:14;;;;;;;2.70;1.55;;;;;;;;;;5013011;28;20034;-74
2021/12/25 13:28:41;;;;;;;1.85;1.40;;;;;;;;;;5013052;28;20100;-74
2021/12/25 13:31:19;;;;;;;5.90;1.40;;;;;;;;;;5011933;28;20037;-74
2021/12/25 13:33:53;;;;;;;2.38;1.27;;;;;;;;;;5013061;28;20044;-74
2021/12/25 13:36:25;;;;;;;1.30;1.17;;;;;;;;;;5012837;28;20122;-74
2021/12/25 13:38:55;;;;;;;;;;;;;;;;;;5013345;28;20433;-74
2021/12/25 13:41:40;;;;;;;2.10;1.60;;;;;;;;;;5011875;28;20271;-74
2021/12/25 13:44:16;;;;;;;1.67;1.40;;;;;;;;;;5004979;28;20402;-74
2021/12/25 13:46:51;;;;;;;1.38;1.27;;;;;;;;;;5012692;28;20384;-74
2021/12/25 13:49:44;;;;;;;1.75;1.40;;;;;;;;;;5012584;28;20084;-74
2021/12/25 13:52:20;;;;;;;1.40;1.30;;;;;;;;;;4990236;28;20486;-74
2021/12/25 13:55:11;;;;;;;1.55;1.20;;;;;;;;;;5012669;28;20072;-74
2021/12/25 13:57:41;;;;;;;2.05;1.15;;;;;;;;;;5012474;28;20050;-74
2021/12/25 14:00:21;;;;;;;2.22;1.38;;;;;;;;;;4994599;28;20212;-74
2021/12/25 14:02:50;;;;;;;1.35;1.25;;;;;;;;;;5011774;28;20033;-74
2021/12/25 14:05:20;;;;;;;2.17;1.73;;;;;;;;;;5012245;28;20026;-74
2021/12/25 14:07:45;;;;;;;2.10;1.90;;;;;;;;;;4994743;28;20042;-74
2021/12/25 14:10:12;;;;;;;5.45;2.78;;;;;;;;;;5012046;28;20038;-74
2021/12/25 14:12:41;;;;;;;1.92;1.70;;;;;;;;;;5012545;28;20030;-74
2021/12/25 14:15:09;;;;;;;4.90;3.67;;;;;;;;;;4993586;28;20034;-74
2021/12/25 14:17:36;;;;;;;2.58;2.35;;;;;;;;;;5012069;28;20045;-74
2021/12/25 14:20:24;;;;;;;5.55;2.47;;;;;;;;;;5011980;28;20032;-74
2021/12/25 14:23:00;;;;;;;2.65;1.85;;;;;;;;;;4994478;28;20048;-74
2021/12/25 14:25:29;;;;;;;2.65;2.30;;;;;;;;;;4993529;28;20490;-74
2021/12/25 14:28:28;;;;;;;4.07;2.55;;;;;;;;;;5011532;28;20455;-74
2021/12/25 14:31:11;;;;;;;4.32;3.38;;;;;;;;;;5003986;28;20080;-74
2021/12/25 14:33:51;;;;;;;4.90;3.92;;;;;;;;;;4994494;28;20057;-74
2021/12/25 14:36:17;;;;;;;5.65;3.90;;;;;;;;;;4993169;28;20026;-74
2021/12/25 14:38:48;;;;;;;7.32;3.97;;;;;;;;;;5011805;28;20040;-74
2021/12/25 14:41:16;;;;;;;7.25;5.03;;;;;;;;;;4994037;28;20045;-74
2021/12/25 14:43:42;;;;;;;5.60;4.00;;;;;;;;;;5011731;28;20033;-74
2021/12/25 14:46:10;;;;;;;4.93;4.03;;;;;;;;;;4979655;28;20042;-74
2021/12/25 14:48:38;;;;;;;3.53;2.60;;;;;;;;;;4993613;28;20510;-74
2021/12/25 14:51:13;;;;;;;3.05;2.20;;;;;;;;;;4993489;28;20037;-74
2021/12/25 14:53:47;;;;;;;2.20;1.83;;;;;;;;;;5011117;28;20469;-74
2021/12/25 14:56:20;;;;;;;3.15;2.35;;;;;;;;;;5011508;28;20128;-74
2021/12/25 14:58:48;;;;;;;3.45;2.97;;;;;;;;;;4992951;28;20115;-74
2021/12/25 15:01:19;;;;;;;4.30;2.85;;;;;;;;;;5011152;28;20030;-75
2021/12/25 15:04:03;;;;;;;7.90;3.03;;;;;;;;;;5011587;28;20040;-74
2021/12/25 15:06:29;;;;;;;5.53;3.47;;;;;;;;;;4977221;28;20494;-74
2021/12/25 15:09:08;;;;;;;5.20;3.50;;;;;;;;;;5010454;28;20072;-74
2021/12/25 15:11:36;;;;;;;6.10;3.45;;;;;;;;;;4993371;28;20450;-74
2021/12/25 15:14:06;;;;;;;7.38;3.67;;;;;;;;;;5011150;28;20072;-74
2021/12/25 15:16:34;;;;;;;5.13;3.53;;;;;;;;;;5011068;28;20065;-74
2021/12/25 15:19:00;;;;;;;6.72;3.35;;;;;;;;;;4993450;28;20025;-74
2021/12/25 15:21:25;;;;;;;7.28;3.42;;;;;;;;;;5009574;28;20088;-73
2021/12/25 15:24:10;;;;;;;2.50;2.30;;;;;;;;;;5011061;28;20025;-74
2021/12/25 15:26:42;;;;;;;3.65;3.03;;;;;;;;;;4993157;28;20049;-74
2021/12/25 15:29:08;;;;;;;2.97;2.67;;;;;;;;;;4977084;28;20494;-74
2021/12/25 15:31:34;;;;;;;7.60;3.03;;;;;;;;;;4976321;28;20505;-74
2021/12/25 15:34:05;;;;;;;7.05;3.20;;;;;;;;;;5010892;28;20046;-74
2021/12/25 15:36:33;;;;;;;3.00;2.70;;;;;;;;;;4993079;28;20041;-74
2021/12/25 15:39:09;;;;;;;4.40;2.88;;;;;;;;;;5010865;28;20422;-74
2021/12/25 15:41:34;;;;;;;4.95;2.97;;;;;;;;;;4992173;28;20885;-74
2021/12/25 15:44:00;;;;;;;3.35;2.63;;;;;;;;;;4992855;28;20123;-74
2021/12/25 15:46:25;;;;;;;6.63;3.40;;;;;;;;;;4992924;28;20034;-74
2021/12/25 15:48:51;;;;;;;6.50;3.92;;;;;;;;;;4976713;28;20132;-74
2021/12/25 15:51:16;;;;;;;5.22;3.75;;;;;;;;;;4992681;28;20065;-74
2021/12/25 15:53:42;;;;;;;6.03;4.45;;;;;;;;;;4987918;28;20125;-74
2021/12/25 15:56:07;;;;;;;9.43;4.70;;;;;;;;;;4992745;28;20033;-74
2021/12/25 15:58:33;;;;;;;3.92;3.47;;;;;;;;;;4992832;28;20042;-74
2021/12/25 16:00:59;;;;;;;7.50;5.15;;;;;;;;;;4992573;28;20033;-74
2021/12/25 16:03:25;;;;;;;5.70;3.83;;;;;;;;;;4992193;28;20159;-74
2021/12/25 16:05:51;;;;;;;3.30;3.00;;;;;;;;;;4991696;28;20041;-74
2021/12/25 16:08:17;;;;;;;5.13;3.38;;;;;;;;;;5010231;28;20091;-74
2021/12/25 16:10:43;;;;;;;3.55;2.38;;;;;;;;;;5010203;28;20045;-74
2021/12/25 16:13:09;;;;;;;2.55;2.28;;;;;;;;;;4992795;28;20057;-74
2021/12/25 16:15:34;;;;;;;4.50;3.17;;;;;;;;;;4972427;28;20116;-74
2021/12/25 16:18:00;;;;;;;5.65;3.05;;;;;;;;;;4973056;28;20480;-74
2021/12/25 16:20:26;;;;;;;4.22;3.05;;;;;;;;;;4990543;28;20046;-74
2021/12/25 16:22:51;;;;;;;6.82;3.65;;;;;;;;;;4989537;28;20034;-74
2021/12/25 16:25:19;;;;;;;5.13;3.38;;;;;;;;;;4991357;28;20045;-74
2021/12/25 16:27:44;;;;;;;4.47;3.30;;;;;;;;;;4975873;28;20025;-73
2021/12/25 16:30:12;;;;;;;3.15;2.60;;;;;;;;;;4975974;28;20042;-73
2021/12/25 16:32:38;;;;;;;3.83;3.28;;;;;;;;;;5010003;28;20034;-73
2021/12/25 16:35:05;;;;;;;3.22;2.55;;;;;;;;;;5010248;28;20061;-73